sensor_id;sensor_type;location;lat;lon;timestamp;pressure;altitude;pressure_sealevel;temperature;humidity
60099;BME280;62818;49.394;8.686;2023-12-28T00:00:36;100488.69;;;8.30;95.06
60099;BME280;62818;49.394;8.686;2023-12-28T00:01:37;100490.94;;;8.25;95.17
60099;BME280;62818;49.394;8.686;2023-12-28T00:02:37;100496.66;;;8.12;96.46
60099;BME280;62818;49.394;8.686;2023-12-28T00:03:37;100486.97;;;8.21;96.78
60099;BME280;62818;49.394;8.686;2023-12-28T00:04:41;100485.91;;;8.06;96.58
60099;BME280;62818;49.394;8.686;2023-12-28T00:05:41;100487.91;;;8.12;97.21
60099;BME280;62818;49.394;8.686;2023-12-28T00:06:42;100499.78;;;8.08;97.09
60099;BME280;62818;49.394;8.686;2023-12-28T00:07:42;100477.31;;;8.30;95.35
60099;BME280;62818;49.394;8.686;2023-12-28T00:08:43;100495.69;;;8.47;94.56
60099;BME280;62818;49.394;8.686;2023-12-28T00:09:43;100493.34;;;8.10;96.25
60099;BME280;62818;49.394;8.686;2023-12-28T00:10:44;100481.88;;;7.94;97.14
60099;BME280;62818;49.394;8.686;2023-12-28T00:11:44;100484.41;;;8.37;95.85
60099;BME280;62818;49.394;8.686;2023-12-28T00:12:45;100479.66;;;8.41;95.19
60099;BME280;62818;49.394;8.686;2023-12-28T00:13:45;100487.03;;;8.29;94.72
60099;BME280;62818;49.394;8.686;2023-12-28T00:14:46;100491.06;;;8.41;93.98
60099;BME280;62818;49.394;8.686;2023-12-28T00:15:46;100492.66;;;8.26;94.82
60099;BME280;62818;49.394;8.686;2023-12-28T00:16:47;100481.34;;;8.24;94.98
60099;BME280;62818;49.394;8.686;2023-12-28T00:17:47;100485.41;;;8.28;94.69
60099;BME280;62818;49.394;8.686;2023-12-28T00:18:48;100478.53;;;8.43;93.88
60099;BME280;62818;49.394;8.686;2023-12-28T00:19:48;100483.28;;;8.40;93.15
60099;BME280;62818;49.394;8.686;2023-12-28T00:20:49;100508.88;;;8.39;93.05
60099;BME280;62818;49.394;8.686;2023-12-28T00:21:49;100508.75;;;8.23;94.17
60099;BME280;62818;49.394;8.686;2023-12-28T00:22:50;100481.25;;;8.26;94.61
60099;BME280;62818;49.394;8.686;2023-12-28T00:23:51;100495.53;;;8.15;94.86
60099;BME280;62818;49.394;8.686;2023-12-28T00:24:51;100505.56;;;8.11;96.03
60099;BME280;62818;49.394;8.686;2023-12-28T00:25:51;100508.63;;;7.99;96.23
60099;BME280;62818;49.394;8.686;2023-12-28T00:26:52;100507.69;;;8.08;95.82
60099;BME280;62818;49.394;8.686;2023-12-28T00:27:52;100526.09;;;8.00;96.52
60099;BME280;62818;49.394;8.686;2023-12-28T00:28:53;100512.31;;;8.06;97.28
60099;BME280;62818;49.394;8.686;2023-12-28T00:29:53;100507.63;;;8.00;96.90
60099;BME280;62818;49.394;8.686;2023-12-28T00:30:54;100503.72;;;8.30;96.16
60099;BME280;62818;49.394;8.686;2023-12-28T00:31:54;100492.69;;;8.42;94.56
60099;BME280;62818;49.394;8.686;2023-12-28T00:32:55;100509.00;;;8.30;93.57
60099;BME280;62818;49.394;8.686;2023-12-28T00:33:55;100514.81;;;8.15;94.70
60099;BME280;62818;49.394;8.686;2023-12-28T00:34:56;100518.38;;;8.06;95.25
60099;BME280;62818;49.394;8.686;2023-12-28T00:35:56;100511.31;;;8.07;95.56
60099;BME280;62818;49.394;8.686;2023-12-28T00:36:57;100497.59;;;8.29;95.47
60099;BME280;62818;49.394;8.686;2023-12-28T00:37:58;100502.66;;;8.22;95.93
60099;BME280;62818;49.394;8.686;2023-12-28T00:38:58;100516.66;;;8.15;94.84
60099;BME280;62818;49.394;8.686;2023-12-28T00:39:59;100511.38;;;8.15;94.88
60099;BME280;62818;49.394;8.686;2023-12-28T00:40:59;100509.81;;;8.30;95.10
60099;BME280;62818;49.394;8.686;2023-12-28T00:42:00;100506.53;;;8.28;94.06
60099;BME280;62818;49.394;8.686;2023-12-28T00:43:00;100513.19;;;8.14;94.38
60099;BME280;62818;49.394;8.686;2023-12-28T00:44:01;100487.47;;;8.24;94.00
60099;BME280;62818;49.394;8.686;2023-12-28T00:45:02;100505.44;;;8.21;93.93
60099;BME280;62818;49.394;8.686;2023-12-28T00:46:03;100513.03;;;8.24;93.62
60099;BME280;62818;49.394;8.686;2023-12-28T00:47:03;100500.84;;;8.23;93.88
60099;BME280;62818;49.394;8.686;2023-12-28T00:48:05;100495.38;;;8.24;93.59
60099;BME280;62818;49.394;8.686;2023-12-28T00:49:05;100482.81;;;8.18;94.06
60099;BME280;62818;49.394;8.686;2023-12-28T00:50:06;100485.66;;;8.25;93.31
60099;BME280;62818;49.394;8.686;2023-12-28T00:51:07;100489.66;;;8.29;93.30
60099;BME280;62818;49.394;8.686;2023-12-28T00:52:07;100484.00;;;8.24;93.03
60099;BME280;62818;49.394;8.686;2023-12-28T00:53:08;100492.72;;;8.16;93.68
60099;BME280;62818;49.394;8.686;2023-12-28T00:54:08;100489.06;;;8.17;93.49
60099;BME280;62818;49.394;8.686;2023-12-28T00:55:10;100496.81;;;8.11;93.57
60099;BME280;62818;49.394;8.686;2023-12-28T00:56:10;100494.28;;;8.27;93.46
60099;BME280;62818;49.394;8.686;2023-12-28T00:57:11;100501.00;;;8.21;92.89
60099;BME280;62818;49.394;8.686;2023-12-28T00:58:11;100496.88;;;8.19;93.30
60099;BME280;62818;49.394;8.686;2023-12-28T00:59:12;100498.84;;;8.17;93.48
60099;BME280;62818;49.394;8.686;2023-12-28T01:00:13;100494.28;;;8.27;92.65
60099;BME280;62818;49.394;8.686;2023-12-28T01:01:13;100490.94;;;8.25;92.21
60099;BME280;62818;49.394;8.686;2023-12-28T01:02:14;100489.28;;;8.24;92.76
60099;BME280;62818;49.394;8.686;2023-12-28T01:03:14;100500.22;;;8.29;92.84
60099;BME280;62818;49.394;8.686;2023-12-28T01:04:15;100475.75;;;8.19;93.17
60099;BME280;62818;49.394;8.686;2023-12-28T01:05:17;100485.72;;;8.33;92.35
60099;BME280;62818;49.394;8.686;2023-12-28T01:06:17;100481.53;;;8.22;92.72
60099;BME280;62818;49.394;8.686;2023-12-28T01:07:18;100490.56;;;8.12;92.53
60099;BME280;62818;49.394;8.686;2023-12-28T01:08:18;100460.56;;;8.21;93.40
60099;BME280;62818;49.394;8.686;2023-12-28T01:09:19;100476.72;;;8.44;91.76
60099;BME280;62818;49.394;8.686;2023-12-28T01:10:21;100482.78;;;8.36;91.70
60099;BME280;62818;49.394;8.686;2023-12-28T01:11:21;100495.72;;;8.21;92.55
60099;BME280;62818;49.394;8.686;2023-12-28T01:12:22;100487.63;;;8.23;92.40
60099;BME280;62818;49.394;8.686;2023-12-28T01:13:22;100487.44;;;8.16;92.72
60099;BME280;62818;49.394;8.686;2023-12-28T01:14:23;100485.31;;;8.20;92.72
60099;BME280;62818;49.394;8.686;2023-12-28T01:15:23;100496.66;;;8.12;92.99
60099;BME280;62818;49.394;8.686;2023-12-28T01:16:24;100482.78;;;8.10;93.42
60099;BME280;62818;49.394;8.686;2023-12-28T01:17:24;100496.13;;;8.09;93.39
60099;BME280;62818;49.394;8.686;2023-12-28T01:18:25;100511.66;;;8.12;93.52
60099;BME280;62818;49.394;8.686;2023-12-28T01:19:25;100500.81;;;8.15;93.58
60099;BME280;62818;49.394;8.686;2023-12-28T01:20:25;100499.78;;;8.08;94.14
60099;BME280;62818;49.394;8.686;2023-12-28T01:21:26;100498.28;;;8.05;94.05
60099;BME280;62818;49.394;8.686;2023-12-28T01:22:28;100490.44;;;7.96;94.46
60099;BME280;62818;49.394;8.686;2023-12-28T01:23:29;100506.28;;;7.96;94.71
60099;BME280;62818;49.394;8.686;2023-12-28T01:24:29;100513.03;;;7.90;95.90
60099;BME280;62818;49.394;8.686;2023-12-28T01:25:30;100511.91;;;7.93;95.53
60099;BME280;62818;49.394;8.686;2023-12-28T01:26:30;100518.34;;;7.98;95.22
60099;BME280;62818;49.394;8.686;2023-12-28T01:27:31;100491.28;;;7.96;94.94
60099;BME280;62818;49.394;8.686;2023-12-28T01:28:31;100514.28;;;8.04;94.72
60099;BME280;62818;49.394;8.686;2023-12-28T01:29:31;100539.56;;;8.14;94.81
60099;BME280;62818;49.394;8.686;2023-12-28T01:30:33;100505.75;;;8.18;93.89
60099;BME280;62818;49.394;8.686;2023-12-28T01:31:34;100527.06;;;8.24;93.04
60099;BME280;62818;49.394;8.686;2023-12-28T01:32:35;100518.06;;;8.27;92.55
60099;BME280;62818;49.394;8.686;2023-12-28T01:33:35;100545.34;;;8.36;91.99
60099;BME280;62818;49.394;8.686;2023-12-28T01:34:36;100540.25;;;8.42;91.65
60099;BME280;62818;49.394;8.686;2023-12-28T01:35:36;100530.97;;;8.72;89.68
60099;BME280;62818;49.394;8.686;2023-12-28T01:36:36;100537.13;;;8.88;88.29
60099;BME280;62818;49.394;8.686;2023-12-28T01:37:41;100544.78;;;8.58;89.16
60099;BME280;62818;49.394;8.686;2023-12-28T01:38:42;100532.09;;;8.61;88.49
60099;BME280;62818;49.394;8.686;2023-12-28T01:39:42;100533.75;;;8.70;88.07
60099;BME280;62818;49.394;8.686;2023-12-28T01:40:45;100534.03;;;8.59;88.60
60099;BME280;62818;49.394;8.686;2023-12-28T01:41:46;100547.41;;;9.00;86.90
60099;BME280;62818;49.394;8.686;2023-12-28T01:42:46;100528.22;;;8.89;85.93
60099;BME280;62818;49.394;8.686;2023-12-28T01:43:47;100529.56;;;8.93;86.08
60099;BME280;62818;49.394;8.686;2023-12-28T01:44:48;100556.94;;;8.84;85.81
60099;BME280;62818;49.394;8.686;2023-12-28T01:45:48;100547.69;;;8.88;86.00
60099;BME280;62818;49.394;8.686;2023-12-28T01:46:49;100557.91;;;8.75;86.01
60099;BME280;62818;49.394;8.686;2023-12-28T01:47:52;100525.91;;;8.94;85.89
60099;BME280;62818;49.394;8.686;2023-12-28T01:48:56;100534.59;;;9.29;84.98
60099;BME280;62818;49.394;8.686;2023-12-28T01:49:57;100534.44;;;9.38;83.42
60099;BME280;62818;49.394;8.686;2023-12-28T01:50:59;100543.50;;;9.28;82.30
60099;BME280;62818;49.394;8.686;2023-12-28T01:52:01;100527.22;;;8.82;84.35
60099;BME280;62818;49.394;8.686;2023-12-28T01:53:03;100516.06;;;9.21;83.98
60099;BME280;62818;49.394;8.686;2023-12-28T01:54:04;100541.47;;;9.06;84.03
60099;BME280;62818;49.394;8.686;2023-12-28T01:55:05;100524.31;;;9.10;83.46
60099;BME280;62818;49.394;8.686;2023-12-28T01:56:08;100520.66;;;9.19;82.91
60099;BME280;62818;49.394;8.686;2023-12-28T01:57:10;100521.84;;;9.32;82.13
60099;BME280;62818;49.394;8.686;2023-12-28T01:58:11;100519.72;;;9.52;80.68
60099;BME280;62818;49.394;8.686;2023-12-28T01:59:12;100529.66;;;9.66;79.67
60099;BME280;62818;49.394;8.686;2023-12-28T02:00:13;100533.13;;;9.66;79.17
60099;BME280;62818;49.394;8.686;2023-12-28T02:01:14;100519.66;;;10.00;77.25
60099;BME280;62818;49.394;8.686;2023-12-28T02:02:15;100553.44;;;9.74;77.62
60099;BME280;62818;49.394;8.686;2023-12-28T02:03:16;100536.25;;;9.54;78.19
60099;BME280;62818;49.394;8.686;2023-12-28T02:04:16;100543.19;;;9.63;78.68
60099;BME280;62818;49.394;8.686;2023-12-28T02:05:17;100518.41;;;9.64;78.97
60099;BME280;62818;49.394;8.686;2023-12-28T02:06:22;100568.84;;;9.46;78.67
60099;BME280;62818;49.394;8.686;2023-12-28T02:07:24;100543.66;;;9.34;79.34
60099;BME280;62818;49.394;8.686;2023-12-28T02:08:25;100534.28;;;9.64;78.28
60099;BME280;62818;49.394;8.686;2023-12-28T02:09:26;100543.84;;;9.65;78.39
60099;BME280;62818;49.394;8.686;2023-12-28T02:10:27;100537.91;;;9.47;78.76
60099;BME280;62818;49.394;8.686;2023-12-28T02:11:28;100542.88;;;9.50;79.28
60099;BME280;62818;49.394;8.686;2023-12-28T02:12:28;100534.94;;;9.34;79.34
60099;BME280;62818;49.394;8.686;2023-12-28T02:13:29;100539.34;;;9.25;79.96
60099;BME280;62818;49.394;8.686;2023-12-28T02:14:30;100543.66;;;9.18;80.67
60099;BME280;62818;49.394;8.686;2023-12-28T02:15:30;100541.81;;;9.11;80.97
60099;BME280;62818;49.394;8.686;2023-12-28T02:16:38;100544.28;;;9.12;81.40
60099;BME280;62818;49.394;8.686;2023-12-28T02:17:58;100544.09;;;9.06;81.61
60099;BME280;62818;49.394;8.686;2023-12-28T02:20:52;100543.63;;;9.02;82.12
60099;BME280;62818;49.394;8.686;2023-12-28T02:21:54;100546.75;;;8.98;82.89
60099;BME280;62818;49.394;8.686;2023-12-28T02:22:56;100548.06;;;8.93;82.52
60099;BME280;62818;49.394;8.686;2023-12-28T02:23:57;100538.81;;;8.89;83.31
60099;BME280;62818;49.394;8.686;2023-12-28T02:25:07;100550.22;;;9.06;83.49
60099;BME280;62818;49.394;8.686;2023-12-28T02:26:09;100554.19;;;8.94;83.50
60099;BME280;62818;49.394;8.686;2023-12-28T02:27:09;100550.88;;;8.92;83.69
60099;BME280;62818;49.394;8.686;2023-12-28T02:28:10;100543.06;;;8.82;83.76
60099;BME280;62818;49.394;8.686;2023-12-28T02:29:10;100539.66;;;8.98;83.89
60099;BME280;62818;49.394;8.686;2023-12-28T02:30:11;100558.34;;;9.05;83.62
60099;BME280;62818;49.394;8.686;2023-12-28T02:31:21;100547.09;;;9.03;82.63
60099;BME280;62818;49.394;8.686;2023-12-28T02:32:35;100554.97;;;8.94;83.06
60099;BME280;62818;49.394;8.686;2023-12-28T02:33:59;100556.31;;;8.90;84.38
60099;BME280;62818;49.394;8.686;2023-12-28T02:35:17;100546.56;;;8.91;83.66
60099;BME280;62818;49.394;8.686;2023-12-28T02:36:23;100550.06;;;9.00;84.06
60099;BME280;62818;49.394;8.686;2023-12-28T02:37:27;100542.94;;;8.92;83.88
60099;BME280;62818;49.394;8.686;2023-12-28T02:38:30;100542.09;;;8.91;83.70
60099;BME280;62818;49.394;8.686;2023-12-28T02:39:33;100547.88;;;8.95;83.47
60099;BME280;62818;49.394;8.686;2023-12-28T02:40:39;100541.16;;;9.01;83.77
60099;BME280;62818;49.394;8.686;2023-12-28T02:41:43;100545.78;;;9.07;83.85
60099;BME280;62818;49.394;8.686;2023-12-28T02:42:45;100539.97;;;8.95;83.84
60099;BME280;62818;49.394;8.686;2023-12-28T02:43:47;100542.59;;;8.95;83.99
60099;BME280;62818;49.394;8.686;2023-12-28T02:44:49;100544.63;;;9.09;83.70
60099;BME280;62818;49.394;8.686;2023-12-28T02:45:50;100558.34;;;9.13;82.84
60099;BME280;62818;49.394;8.686;2023-12-28T02:46:51;100548.59;;;9.05;83.43
60099;BME280;62818;49.394;8.686;2023-12-28T02:47:51;100547.59;;;9.06;82.54
60099;BME280;62818;49.394;8.686;2023-12-28T02:48:51;100543.50;;;9.12;81.98
60099;BME280;62818;49.394;8.686;2023-12-28T02:49:53;100541.50;;;9.22;81.78
60099;BME280;62818;49.394;8.686;2023-12-28T02:50:53;100527.81;;;9.26;81.83
60099;BME280;62818;49.394;8.686;2023-12-28T02:51:54;100542.22;;;9.32;81.35
60099;BME280;62818;49.394;8.686;2023-12-28T02:52:54;100530.44;;;9.26;81.24
60099;BME280;62818;49.394;8.686;2023-12-28T02:53:55;100529.44;;;9.19;81.25
60099;BME280;62818;49.394;8.686;2023-12-28T02:54:55;100540.72;;;9.29;81.30
60099;BME280;62818;49.394;8.686;2023-12-28T02:55:56;100526.16;;;9.33;80.77
60099;BME280;62818;49.394;8.686;2023-12-28T02:56:56;100535.25;;;9.39;80.12
60099;BME280;62818;49.394;8.686;2023-12-28T02:57:57;100531.28;;;9.35;79.95
60099;BME280;62818;49.394;8.686;2023-12-28T02:59:01;100530.31;;;9.36;80.34
60099;BME280;62818;49.394;8.686;2023-12-28T03:00:03;100527.47;;;9.29;80.15
60099;BME280;62818;49.394;8.686;2023-12-28T03:01:05;100531.59;;;9.24;80.47
60099;BME280;62818;49.394;8.686;2023-12-28T03:02:05;100531.28;;;9.27;80.30
60099;BME280;62818;49.394;8.686;2023-12-28T03:03:06;100538.91;;;9.38;81.07
60099;BME280;62818;49.394;8.686;2023-12-28T03:04:06;100538.56;;;9.25;80.83
60099;BME280;62818;49.394;8.686;2023-12-28T03:05:09;100538.22;;;9.28;81.16
60099;BME280;62818;49.394;8.686;2023-12-28T03:06:10;100546.63;;;9.23;80.43
60099;BME280;62818;49.394;8.686;2023-12-28T03:07:10;100537.06;;;9.22;81.34
60099;BME280;62818;49.394;8.686;2023-12-28T03:08:10;100532.91;;;9.12;81.05
60099;BME280;62818;49.394;8.686;2023-12-28T03:09:11;100541.16;;;9.09;81.65
60099;BME280;62818;49.394;8.686;2023-12-28T03:10:12;100539.47;;;9.08;81.55
60099;BME280;62818;49.394;8.686;2023-12-28T03:11:12;100532.56;;;9.15;81.36
60099;BME280;62818;49.394;8.686;2023-12-28T03:12:13;100538.03;;;9.13;81.61
60099;BME280;62818;49.394;8.686;2023-12-28T03:13:14;100535.72;;;9.18;80.97
60099;BME280;62818;49.394;8.686;2023-12-28T03:14:14;100532.25;;;9.18;81.51
60099;BME280;62818;49.394;8.686;2023-12-28T03:15:15;100540.84;;;9.20;81.22
60099;BME280;62818;49.394;8.686;2023-12-28T03:16:15;100535.56;;;9.20;81.42
60099;BME280;62818;49.394;8.686;2023-12-28T03:17:16;100538.56;;;9.25;81.18
60099;BME280;62818;49.394;8.686;2023-12-28T03:18:16;100531.59;;;9.24;81.10
60099;BME280;62818;49.394;8.686;2023-12-28T03:19:17;100529.94;;;9.23;81.12
60099;BME280;62818;49.394;8.686;2023-12-28T03:20:18;100534.91;;;9.18;81.20
60099;BME280;62818;49.394;8.686;2023-12-28T03:21:19;100542.16;;;9.24;81.49
60099;BME280;62818;49.394;8.686;2023-12-28T03:22:19;100534.28;;;9.32;81.69
60099;BME280;62818;49.394;8.686;2023-12-28T03:23:20;100525.47;;;9.23;82.59
60099;BME280;62818;49.394;8.686;2023-12-28T03:24:20;100535.91;;;9.33;81.33
60099;BME280;62818;49.394;8.686;2023-12-28T03:25:20;100547.81;;;9.29;81.92
60099;BME280;62818;49.394;8.686;2023-12-28T03:26:21;100540.06;;;9.35;81.86
60099;BME280;62818;49.394;8.686;2023-12-28T03:27:22;100544.34;;;9.28;81.54
60099;BME280;62818;49.394;8.686;2023-12-28T03:28:22;100539.88;;;9.37;81.92
60099;BME280;62818;49.394;8.686;2023-12-28T03:29:24;100527.31;;;9.31;81.66
60099;BME280;62818;49.394;8.686;2023-12-28T03:30:24;100537.22;;;9.37;82.35
60099;BME280;62818;49.394;8.686;2023-12-28T03:31:25;100535.59;;;9.36;82.44
60099;BME280;62818;49.394;8.686;2023-12-28T03:32:25;100528.97;;;9.32;82.11
60099;BME280;62818;49.394;8.686;2023-12-28T03:33:26;100528.97;;;9.32;82.28
60099;BME280;62818;49.394;8.686;2023-12-28T03:34:27;100539.56;;;9.32;82.76
60099;BME280;62818;49.394;8.686;2023-12-28T03:35:29;100541.69;;;9.36;82.98
60099;BME280;62818;49.394;8.686;2023-12-28T03:36:33;100537.53;;;9.26;82.63
60099;BME280;62818;49.394;8.686;2023-12-28T03:37:33;100539.22;;;9.35;83.36
60099;BME280;62818;49.394;8.686;2023-12-28T03:38:34;100543.19;;;9.31;82.13
60099;BME280;62818;49.394;8.686;2023-12-28T03:39:35;100547.97;;;9.27;82.49
60099;BME280;62818;49.394;8.686;2023-12-28T03:40:35;100543.66;;;9.26;83.30
60099;BME280;62818;49.394;8.686;2023-12-28T03:41:36;100547.81;;;9.21;83.19
60099;BME280;62818;49.394;8.686;2023-12-28T03:42:36;100538.56;;;9.25;83.63
60099;BME280;62818;49.394;8.686;2023-12-28T03:43:38;100530.94;;;9.30;84.28
60099;BME280;62818;49.394;8.686;2023-12-28T03:44:38;100536.88;;;9.24;83.93
60099;BME280;62818;49.394;8.686;2023-12-28T03:45:39;100544.50;;;9.27;84.19
60099;BME280;62818;49.394;8.686;2023-12-28T03:46:39;100538.56;;;9.25;83.89
60099;BME280;62818;49.394;8.686;2023-12-28T03:47:40;100537.88;;;9.23;84.40
60099;BME280;62818;49.394;8.686;2023-12-28T03:48:40;100537.72;;;9.24;84.73
60099;BME280;62818;49.394;8.686;2023-12-28T03:49:41;100543.84;;;9.25;84.99
60099;BME280;62818;49.394;8.686;2023-12-28T03:50:41;100538.88;;;9.22;85.24
60099;BME280;62818;49.394;8.686;2023-12-28T03:51:42;100526.81;;;9.27;85.20
60099;BME280;62818;49.394;8.686;2023-12-28T03:52:42;100526.31;;;9.24;85.79
60099;BME280;62818;49.394;8.686;2023-12-28T03:53:43;100529.94;;;9.23;85.98
60099;BME280;62818;49.394;8.686;2023-12-28T03:54:43;100530.63;;;9.25;85.89
60099;BME280;62818;49.394;8.686;2023-12-28T03:55:44;100533.25;;;9.25;86.16
60099;BME280;62818;49.394;8.686;2023-12-28T03:56:46;100527.31;;;9.31;86.72
60099;BME280;62818;49.394;8.686;2023-12-28T03:57:47;100539.88;;;9.29;86.91
60099;BME280;62818;49.394;8.686;2023-12-28T03:58:48;100542.22;;;9.40;86.83
60099;BME280;62818;49.394;8.686;2023-12-28T03:59:48;100536.41;;;9.36;86.41
60099;BME280;62818;49.394;8.686;2023-12-28T04:00:49;100530.94;;;9.30;86.99
60099;BME280;62818;49.394;8.686;2023-12-28T04:01:50;100536.38;;;9.20;87.08
60099;BME280;62818;49.394;8.686;2023-12-28T04:02:50;100539.88;;;9.29;87.09
60099;BME280;62818;49.394;8.686;2023-12-28T04:03:50;100550.81;;;9.34;86.72
60099;BME280;62818;49.394;8.686;2023-12-28T04:04:51;100547.47;;;9.24;86.85
60099;BME280;62818;49.394;8.686;2023-12-28T04:05:52;100543.84;;;9.33;86.93
60099;BME280;62818;49.394;8.686;2023-12-28T04:06:53;100547.16;;;9.27;87.16
60099;BME280;62818;49.394;8.686;2023-12-28T04:07:53;100540.53;;;9.31;87.00
60099;BME280;62818;49.394;8.686;2023-12-28T04:08:54;100541.19;;;9.33;87.51
60099;BME280;62818;49.394;8.686;2023-12-28T04:09:54;100540.06;;;9.35;87.82
60099;BME280;62818;49.394;8.686;2023-12-28T04:10:56;100529.16;;;9.38;88.64
60099;BME280;62818;49.394;8.686;2023-12-28T04:11:56;100542.53;;;9.37;88.10
60099;BME280;62818;49.394;8.686;2023-12-28T04:12:57;100525.97;;;9.43;89.09
60099;BME280;62818;49.394;8.686;2023-12-28T04:13:59;100542.06;;;9.49;88.94
60099;BME280;62818;49.394;8.686;2023-12-28T04:14:59;100540.38;;;9.48;89.73
60099;BME280;62818;49.394;8.686;2023-12-28T04:16:00;100539.72;;;9.38;90.22
60099;BME280;62818;49.394;8.686;2023-12-28T04:17:00;100527.31;;;9.39;90.99
60099;BME280;62818;49.394;8.686;2023-12-28T04:18:01;100534.94;;;9.42;91.73
60099;BME280;62818;49.394;8.686;2023-12-28T04:19:02;100545.03;;;9.46;92.49
60099;BME280;62818;49.394;8.686;2023-12-28T04:20:03;100549.47;;;9.54;93.19
60099;BME280;62818;49.394;8.686;2023-12-28T04:21:03;100555.78;;;9.61;93.76
60099;BME280;62818;49.394;8.686;2023-12-28T04:22:07;100550.47;;;9.53;94.33
60099;BME280;62818;49.394;8.686;2023-12-28T04:23:08;100546.84;;;9.46;95.63
60099;BME280;62818;49.394;8.686;2023-12-28T04:24:08;100549.16;;;9.57;95.90
60099;BME280;62818;49.394;8.686;2023-12-28T04:25:09;100562.06;;;9.68;95.87
60099;BME280;62818;49.394;8.686;2023-12-28T04:26:09;100561.72;;;9.55;96.61
60099;BME280;62818;49.394;8.686;2023-12-28T04:27:10;100572.66;;;9.84;97.24
60099;BME280;62818;49.394;8.686;2023-12-28T04:28:11;100569.34;;;9.82;97.06
60099;BME280;62818;49.394;8.686;2023-12-28T04:29:11;100563.88;;;9.59;97.01
60099;BME280;62818;49.394;8.686;2023-12-28T04:30:12;100565.72;;;9.67;97.70
60099;BME280;62818;49.394;8.686;2023-12-28T04:31:13;100564.53;;;9.69;97.63
60099;BME280;62818;49.394;8.686;2023-12-28T04:32:13;100565.69;;;9.59;99.05
60099;BME280;62818;49.394;8.686;2023-12-28T04:33:17;100564.38;;;9.55;99.23
60099;BME280;62818;49.394;8.686;2023-12-28T04:34:19;100557.09;;;9.49;99.68
60099;BME280;62818;49.394;8.686;2023-12-28T04:35:19;100568.00;;;9.46;100.00
60099;BME280;62818;49.394;8.686;2023-12-28T04:36:20;100561.75;;;9.71;100.00
60099;BME280;62818;49.394;8.686;2023-12-28T04:37:20;100569.00;;;9.85;100.00
60099;BME280;62818;49.394;8.686;2023-12-28T04:38:21;100566.69;;;9.98;100.00
60099;BME280;62818;49.394;8.686;2023-12-28T04:39:21;100562.88;;;10.01;100.00
60099;BME280;62818;49.394;8.686;2023-12-28T04:40:22;100568.00;;;9.94;100.00
60099;BME280;62818;49.394;8.686;2023-12-28T04:41:22;100568.03;;;9.62;100.00
60099;BME280;62818;49.394;8.686;2023-12-28T04:42:23;100569.50;;;9.56;100.00
60099;BME280;62818;49.394;8.686;2023-12-28T04:43:23;100570.31;;;9.89;100.00
60099;BME280;62818;49.394;8.686;2023-12-28T04:44:24;100570.00;;;9.60;100.00
60099;BME280;62818;49.394;8.686;2023-12-28T04:45:26;100580.91;;;9.49;100.00
60099;BME280;62818;49.394;8.686;2023-12-28T04:46:27;100583.56;;;9.49;100.00
60099;BME280;62818;49.394;8.686;2023-12-28T04:47:28;100581.56;;;9.51;100.00
60099;BME280;62818;49.394;8.686;2023-12-28T04:48:28;100585.56;;;9.71;100.00
60099;BME280;62818;49.394;8.686;2023-12-28T04:49:29;100582.59;;;9.58;100.00
60099;BME280;62818;49.394;8.686;2023-12-28T04:50:29;100580.44;;;9.53;100.00
60099;BME280;62818;49.394;8.686;2023-12-28T04:51:30;100587.88;;;9.66;100.00
60099;BME280;62818;49.394;8.686;2023-12-28T04:52:30;100583.56;;;9.49;100.00
60099;BME280;62818;49.394;8.686;2023-12-28T04:53:31;100584.56;;;9.72;100.00
60099;BME280;62818;49.394;8.686;2023-12-28T04:54:32;100589.50;;;9.59;100.00
60099;BME280;62818;49.394;8.686;2023-12-28T04:55:35;100601.09;;;9.66;100.00
60099;BME280;62818;49.394;8.686;2023-12-28T04:56:36;100595.31;;;9.62;100.00
60099;BME280;62818;49.394;8.686;2023-12-28T04:57:37;100602.25;;;9.55;100.00
60099;BME280;62818;49.394;8.686;2023-12-28T04:58:37;100590.66;;;9.48;100.00
60099;BME280;62818;49.394;8.686;2023-12-28T04:59:41;100598.41;;;9.34;100.00
60099;BME280;62818;49.394;8.686;2023-12-28T05:00:42;100610.63;;;9.27;100.00
60099;BME280;62818;49.394;8.686;2023-12-28T05:01:45;100610.63;;;9.27;100.00
60099;BME280;62818;49.394;8.686;2023-12-28T05:02:46;100617.56;;;9.28;100.00
60099;BME280;62818;49.394;8.686;2023-12-28T05:03:46;100609.78;;;9.26;100.00
60099;BME280;62818;49.394;8.686;2023-12-28T05:04:47;100606.28;;;9.10;100.00
60099;BME280;62818;49.394;8.686;2023-12-28T05:05:47;100613.41;;;9.17;100.00
60099;BME280;62818;49.394;8.686;2023-12-28T05:06:47;100601.28;;;8.99;100.00
60099;BME280;62818;49.394;8.686;2023-12-28T05:07:48;100600.66;;;9.13;100.00
60099;BME280;62818;49.394;8.686;2023-12-28T05:08:48;100598.28;;;8.93;100.00
60099;BME280;62818;49.394;8.686;2023-12-28T05:09:49;100592.63;;;8.80;100.00
60099;BME280;62818;49.394;8.686;2023-12-28T05:10:49;100594.97;;;8.91;100.00
60099;BME280;62818;49.394;8.686;2023-12-28T05:11:50;100593.84;;;8.94;100.00
60099;BME280;62818;49.394;8.686;2023-12-28T05:12:50;100600.31;;;9.08;100.00
60099;BME280;62818;49.394;8.686;2023-12-28T05:13:51;100597.34;;;9.03;100.00
60099;BME280;62818;49.394;8.686;2023-12-28T05:14:51;100611.09;;;9.14;100.00
60099;BME280;62818;49.394;8.686;2023-12-28T05:15:52;100613.88;;;9.13;100.00
60099;BME280;62818;49.394;8.686;2023-12-28T05:16:52;100601.44;;;8.97;100.00
60099;BME280;62818;49.394;8.686;2023-12-28T05:17:52;100611.22;;;9.05;100.00
60099;BME280;62818;49.394;8.686;2023-12-28T05:18:53;100608.09;;;9.09;100.00
60099;BME280;62818;49.394;8.686;2023-12-28T05:19:53;100614.84;;;9.04;100.00
60099;BME280;62818;49.394;8.686;2023-12-28T05:20:56;100618.91;;;8.90;100.00
60099;BME280;62818;49.394;8.686;2023-12-28T05:21:56;100617.75;;;8.92;100.00
60099;BME280;62818;49.394;8.686;2023-12-28T05:22:57;100620.16;;;9.12;100.00
60099;BME280;62818;49.394;8.686;2023-12-28T05:23:57;100616.31;;;8.98;100.00
60099;BME280;62818;49.394;8.686;2023-12-28T05:24:57;100617.84;;;9.09;100.00